sensor_id;sensor_type;location;lat;lon;timestamp;P1;durP1;ratioP1;P2;durP2;ratioP2
67092;SDS011;54011;50.772;7.730;2022-10-17T00:02:13;8.23;;;4.47;;
67092;SDS011;54011;50.772;7.730;2022-10-17T00:04:39;16.95;;;4.50;;
67092;SDS011;54011;50.772;7.730;2022-10-17T00:07:04;9.80;;;4.38;;
67092;SDS011;54011;50.772;7.730;2022-10-17T00:09:30;7.55;;;4.47;;
67092;SDS011;54011;50.772;7.730;2022-10-17T00:11:55;8.77;;;4.22;;
67092;SDS011;54011;50.772;7.730;2022-10-17T00:14:20;7.10;;;3.97;;
67092;SDS011;54011;50.772;7.730;2022-10-17T00:16:46;8.07;;;4.25;;
67092;SDS011;54011;50.772;7.730;2022-10-17T00:19:11;9.65;;;3.70;;
67092;SDS011;54011;50.772;7.730;2022-10-17T00:21:36;12.23;;;3.30;;
67092;SDS011;54011;50.772;7.730;2022-10-17T00:24:02;10.75;;;3.60;;
67092;SDS011;54011;50.772;7.730;2022-10-17T00:26:27;7.95;;;3.33;;
67092;SDS011;54011;50.772;7.730;2022-10-17T00:28:56;9.23;;;3.30;;
67092;SDS011;54011;50.772;7.730;2022-10-17T00:31:22;10.43;;;3.78;;
67092;SDS011;54011;50.772;7.730;2022-10-17T00:33:48;6.97;;;4.00;;
67092;SDS011;54011;50.772;7.730;2022-10-17T00:36:18;8.75;;;4.15;;
67092;SDS011;54011;50.772;7.730;2022-10-17T00:38:46;9.40;;;3.97;;
67092;SDS011;54011;50.772;7.730;2022-10-17T00:41:15;8.52;;;3.95;;
67092;SDS011;54011;50.772;7.730;2022-10-17T00:43:50;8.50;;;3.47;;
67092;SDS011;54011;50.772;7.730;2022-10-17T00:46:18;7.63;;;3.67;;
67092;SDS011;54011;50.772;7.730;2022-10-17T00:48:44;10.15;;;4.30;;
67092;SDS011;54011;50.772;7.730;2022-10-17T00:51:12;15.90;;;3.83;;
67092;SDS011;54011;50.772;7.730;2022-10-17T00:53:39;13.35;;;3.75;;
67092;SDS011;54011;50.772;7.730;2022-10-17T00:56:05;13.18;;;4.18;;
67092;SDS011;54011;50.772;7.730;2022-10-17T00:58:30;12.60;;;3.70;;
67092;SDS011;54011;50.772;7.730;2022-10-17T01:00:57;11.65;;;4.43;;
67092;SDS011;54011;50.772;7.730;2022-10-17T01:03:22;6.30;;;3.80;;
67092;SDS011;54011;50.772;7.730;2022-10-17T01:05:48;10.23;;;3.67;;
67092;SDS011;54011;50.772;7.730;2022-10-17T01:08:14;10.77;;;3.80;;
67092;SDS011;54011;50.772;7.730;2022-10-17T01:13:41;8.48;;;3.78;;
67092;SDS011;54011;50.772;7.730;2022-10-17T01:16:22;7.93;;;3.63;;
67092;SDS011;54011;50.772;7.730;2022-10-17T01:24:51;13.45;;;3.38;;
67092;SDS011;54011;50.772;7.730;2022-10-17T01:30:07;6.63;;;3.55;;
67092;SDS011;54011;50.772;7.730;2022-10-17T01:32:46;13.07;;;4.07;;
67092;SDS011;54011;50.772;7.730;2022-10-17T01:35:24;11.05;;;4.40;;
67092;SDS011;54011;50.772;7.730;2022-10-17T01:40:35;7.35;;;4.13;;
67092;SDS011;54011;50.772;7.730;2022-10-17T01:45:42;11.82;;;4.22;;
67092;SDS011;54011;50.772;7.730;2022-10-17T01:48:15;7.10;;;3.42;;
67092;SDS011;54011;50.772;7.730;2022-10-17T01:50:52;10.50;;;3.97;;
67092;SDS011;54011;50.772;7.730;2022-10-17T01:53:32;12.50;;;4.10;;
67092;SDS011;54011;50.772;7.730;2022-10-17T01:56:02;6.60;;;3.90;;
67092;SDS011;54011;50.772;7.730;2022-10-17T01:58:33;6.53;;;4.00;;
67092;SDS011;54011;50.772;7.730;2022-10-17T02:01:05;11.00;;;4.30;;
67092;SDS011;54011;50.772;7.730;2022-10-17T02:03:33;9.35;;;3.85;;
67092;SDS011;54011;50.772;7.730;2022-10-17T02:06:00;8.60;;;4.07;;
67092;SDS011;54011;50.772;7.730;2022-10-17T02:08:27;14.55;;;4.75;;
67092;SDS011;54011;50.772;7.730;2022-10-17T02:16:34;12.75;;;3.78;;
67092;SDS011;54011;50.772;7.730;2022-10-17T02:24:44;9.65;;;4.60;;
67092;SDS011;54011;50.772;7.730;2022-10-17T02:30:10;8.77;;;4.72;;
67092;SDS011;54011;50.772;7.730;2022-10-17T02:35:23;11.40;;;3.80;;
67092;SDS011;54011;50.772;7.730;2022-10-17T02:37:51;12.82;;;4.25;;
67092;SDS011;54011;50.772;7.730;2022-10-17T02:40:20;10.27;;;4.25;;
67092;SDS011;54011;50.772;7.730;2022-10-17T02:42:47;8.93;;;4.60;;
67092;SDS011;54011;50.772;7.730;2022-10-17T02:45:13;13.43;;;5.25;;
67092;SDS011;54011;50.772;7.730;2022-10-17T02:50:11;10.65;;;4.32;;
67092;SDS011;54011;50.772;7.730;2022-10-17T02:52:50;8.73;;;4.32;;
67092;SDS011;54011;50.772;7.730;2022-10-17T02:58:25;9.40;;;4.53;;
67092;SDS011;54011;50.772;7.730;2022-10-17T03:00:54;8.20;;;4.60;;
67092;SDS011;54011;50.772;7.730;2022-10-17T03:03:22;10.20;;;4.53;;
67092;SDS011;54011;50.772;7.730;2022-10-17T03:05:50;10.50;;;4.38;;
67092;SDS011;54011;50.772;7.730;2022-10-17T03:08:17;8.73;;;4.20;;
67092;SDS011;54011;50.772;7.730;2022-10-17T03:10:42;10.68;;;5.88;;
67092;SDS011;54011;50.772;7.730;2022-10-17T03:13:08;9.25;;;4.93;;
67092;SDS011;54011;50.772;7.730;2022-10-17T03:15:37;15.98;;;5.55;;
67092;SDS011;54011;50.772;7.730;2022-10-17T03:18:03;12.65;;;5.78;;
67092;SDS011;54011;50.772;7.730;2022-10-17T03:20:28;7.70;;;4.63;;
67092;SDS011;54011;50.772;7.730;2022-10-17T03:22:54;14.18;;;4.28;;
67092;SDS011;54011;50.772;7.730;2022-10-17T03:25:20;12.25;;;4.55;;
67092;SDS011;54011;50.772;7.730;2022-10-17T03:27:46;8.80;;;4.25;;
67092;SDS011;54011;50.772;7.730;2022-10-17T03:30:12;8.88;;;4.80;;
67092;SDS011;54011;50.772;7.730;2022-10-17T03:32:37;9.23;;;4.53;;
67092;SDS011;54011;50.772;7.730;2022-10-17T03:35:03;9.13;;;4.38;;
67092;SDS011;54011;50.772;7.730;2022-10-17T03:37:30;12.18;;;4.82;;
67092;SDS011;54011;50.772;7.730;2022-10-17T03:39:57;9.40;;;4.72;;
67092;SDS011;54011;50.772;7.730;2022-10-17T03:42:23;8.90;;;4.30;;
67092;SDS011;54011;50.772;7.730;2022-10-17T03:44:49;8.80;;;4.40;;
67092;SDS011;54011;50.772;7.730;2022-10-17T03:47:15;12.70;;;4.65;;
67092;SDS011;54011;50.772;7.730;2022-10-17T03:49:40;7.00;;;4.40;;
67092;SDS011;54011;50.772;7.730;2022-10-17T03:52:09;10.35;;;4.60;;
67092;SDS011;54011;50.772;7.730;2022-10-17T03:54:36;10.88;;;4.45;;
67092;SDS011;54011;50.772;7.730;2022-10-17T03:57:02;17.15;;;8.20;;
67092;SDS011;54011;50.772;7.730;2022-10-17T03:59:27;17.95;;;6.30;;
67092;SDS011;54011;50.772;7.730;2022-10-17T04:02:00;14.55;;;6.20;;
67092;SDS011;54011;50.772;7.730;2022-10-17T04:04:26;16.42;;;6.30;;
67092;SDS011;54011;50.772;7.730;2022-10-17T04:06:51;10.43;;;6.07;;
67092;SDS011;54011;50.772;7.730;2022-10-17T04:09:17;13.05;;;6.40;;
67092;SDS011;54011;50.772;7.730;2022-10-17T04:11:51;11.43;;;6.35;;
67092;SDS011;54011;50.772;7.730;2022-10-17T04:14:16;10.15;;;5.75;;
67092;SDS011;54011;50.772;7.730;2022-10-17T04:16:42;12.65;;;5.35;;
67092;SDS011;54011;50.772;7.730;2022-10-17T04:19:13;11.40;;;5.60;;
67092;SDS011;54011;50.772;7.730;2022-10-17T04:21:42;10.60;;;4.95;;
67092;SDS011;54011;50.772;7.730;2022-10-17T04:24:09;15.73;;;4.13;;
67092;SDS011;54011;50.772;7.730;2022-10-17T04:26:43;10.57;;;7.47;;
67092;SDS011;54011;50.772;7.730;2022-10-17T04:29:10;9.95;;;5.00;;
67092;SDS011;54011;50.772;7.730;2022-10-17T04:31:37;13.75;;;6.63;;
67092;SDS011;54011;50.772;7.730;2022-10-17T04:34:10;14.77;;;6.28;;
67092;SDS011;54011;50.772;7.730;2022-10-17T04:36:38;11.55;;;5.80;;
67092;SDS011;54011;50.772;7.730;2022-10-17T04:39:04;9.48;;;6.32;;
67092;SDS011;54011;50.772;7.730;2022-10-17T04:41:30;12.70;;;4.88;;
67092;SDS011;54011;50.772;7.730;2022-10-17T04:43:56;11.35;;;5.32;;
67092;SDS011;54011;50.772;7.730;2022-10-17T04:46:22;11.00;;;4.78;;
67092;SDS011;54011;50.772;7.730;2022-10-17T04:48:47;10.20;;;4.80;;
67092;SDS011;54011;50.772;7.730;2022-10-17T04:51:14;11.63;;;4.97;;
67092;SDS011;54011;50.772;7.730;2022-10-17T04:54:00;9.75;;;4.38;;
67092;SDS011;54011;50.772;7.730;2022-10-17T04:56:25;14.15;;;4.13;;
67092;SDS011;54011;50.772;7.730;2022-10-17T04:58:51;11.48;;;3.90;;
67092;SDS011;54011;50.772;7.730;2022-10-17T05:01:20;11.77;;;3.40;;
67092;SDS011;54011;50.772;7.730;2022-10-17T05:03:51;9.30;;;2.80;;
67092;SDS011;54011;50.772;7.730;2022-10-17T05:06:20;15.77;;;10.75;;
67092;SDS011;54011;50.772;7.730;2022-10-17T05:09:05;11.75;;;4.75;;
67092;SDS011;54011;50.772;7.730;2022-10-17T05:11:30;13.93;;;5.25;;
67092;SDS011;54011;50.772;7.730;2022-10-17T05:13:57;9.70;;;4.32;;
67092;SDS011;54011;50.772;7.730;2022-10-17T05:16:24;8.57;;;5.00;;
67092;SDS011;54011;50.772;7.730;2022-10-17T05:18:51;8.55;;;4.43;;
67092;SDS011;54011;50.772;7.730;2022-10-17T05:21:18;8.52;;;3.97;;
67092;SDS011;54011;50.772;7.730;2022-10-17T05:23:45;10.18;;;4.15;;
67092;SDS011;54011;50.772;7.730;2022-10-17T05:26:11;9.45;;;4.50;;
67092;SDS011;54011;50.772;7.730;2022-10-17T05:28:37;14.40;;;4.57;;
67092;SDS011;54011;50.772;7.730;2022-10-17T05:31:07;9.13;;;4.32;;
67092;SDS011;54011;50.772;7.730;2022-10-17T05:33:34;10.55;;;4.40;;
67092;SDS011;54011;50.772;7.730;2022-10-17T05:36:00;8.40;;;4.22;;
67092;SDS011;54011;50.772;7.730;2022-10-17T05:38:26;9.40;;;4.57;;
67092;SDS011;54011;50.772;7.730;2022-10-17T05:40:59;8.70;;;4.50;;
67092;SDS011;54011;50.772;7.730;2022-10-17T05:43:29;8.63;;;4.38;;
67092;SDS011;54011;50.772;7.730;2022-10-17T05:45:55;7.63;;;4.40;;
67092;SDS011;54011;50.772;7.730;2022-10-17T05:48:21;12.57;;;4.60;;
67092;SDS011;54011;50.772;7.730;2022-10-17T05:50:48;10.70;;;4.80;;
67092;SDS011;54011;50.772;7.730;2022-10-17T05:53:15;11.07;;;5.57;;
67092;SDS011;54011;50.772;7.730;2022-10-17T05:55:53;14.05;;;5.03;;
67092;SDS011;54011;50.772;7.730;2022-10-17T05:58:19;10.98;;;4.72;;
67092;SDS011;54011;50.772;7.730;2022-10-17T06:00:47;8.43;;;5.35;;
67092;SDS011;54011;50.772;7.730;2022-10-17T06:03:17;7.28;;;4.60;;
67092;SDS011;54011;50.772;7.730;2022-10-17T06:05:43;11.48;;;5.25;;
67092;SDS011;54011;50.772;7.730;2022-10-17T06:08:11;10.38;;;5.50;;
67092;SDS011;54011;50.772;7.730;2022-10-17T06:10:38;10.48;;;5.38;;
67092;SDS011;54011;50.772;7.730;2022-10-17T06:13:03;8.80;;;5.18;;
67092;SDS011;54011;50.772;7.730;2022-10-17T06:15:29;8.52;;;4.40;;
67092;SDS011;54011;50.772;7.730;2022-10-17T06:18:00;12.68;;;4.00;;
67092;SDS011;54011;50.772;7.730;2022-10-17T06:20:25;8.88;;;4.32;;
67092;SDS011;54011;50.772;7.730;2022-10-17T06:22:51;7.65;;;4.40;;
67092;SDS011;54011;50.772;7.730;2022-10-17T06:25:25;8.48;;;3.90;;
67092;SDS011;54011;50.772;7.730;2022-10-17T06:27:51;8.95;;;3.90;;
67092;SDS011;54011;50.772;7.730;2022-10-17T06:30:16;10.98;;;4.63;;
67092;SDS011;54011;50.772;7.730;2022-10-17T06:32:43;9.52;;;4.07;;
67092;SDS011;54011;50.772;7.730;2022-10-17T06:35:09;9.40;;;4.20;;
67092;SDS011;54011;50.772;7.730;2022-10-17T06:37:38;10.82;;;4.53;;
67092;SDS011;54011;50.772;7.730;2022-10-17T06:40:07;8.32;;;4.15;;
67092;SDS011;54011;50.772;7.730;2022-10-17T06:42:35;8.52;;;3.95;;
67092;SDS011;54011;50.772;7.730;2022-10-17T06:45:06;8.73;;;4.05;;
67092;SDS011;54011;50.772;7.730;2022-10-17T06:47:40;7.90;;;4.35;;
67092;SDS011;54011;50.772;7.730;2022-10-17T06:50:20;10.93;;;4.55;;
67092;SDS011;54011;50.772;7.730;2022-10-17T06:52:56;9.90;;;3.70;;
67092;SDS011;54011;50.772;7.730;2022-10-17T06:55:49;7.63;;;3.88;;
67092;SDS011;54011;50.772;7.730;2022-10-17T06:58:22;8.95;;;3.72;;
67092;SDS011;54011;50.772;7.730;2022-10-17T07:01:08;9.85;;;4.40;;
67092;SDS011;54011;50.772;7.730;2022-10-17T07:03:35;9.57;;;3.67;;
67092;SDS011;54011;50.772;7.730;2022-10-17T07:06:01;6.80;;;4.00;;
67092;SDS011;54011;50.772;7.730;2022-10-17T07:08:27;11.65;;;3.72;;
67092;SDS011;54011;50.772;7.730;2022-10-17T07:10:54;7.32;;;3.83;;
67092;SDS011;54011;50.772;7.730;2022-10-17T07:13:20;15.23;;;3.92;;
67092;SDS011;54011;50.772;7.730;2022-10-17T07:15:45;9.30;;;3.80;;
67092;SDS011;54011;50.772;7.730;2022-10-17T07:18:12;8.93;;;3.80;;
67092;SDS011;54011;50.772;7.730;2022-10-17T07:20:38;9.43;;;3.40;;
67092;SDS011;54011;50.772;7.730;2022-10-17T07:23:04;14.35;;;3.85;;
67092;SDS011;54011;50.772;7.730;2022-10-17T07:25:30;7.85;;;3.38;;
67092;SDS011;54011;50.772;7.730;2022-10-17T07:28:02;15.15;;;3.40;;
67092;SDS011;54011;50.772;7.730;2022-10-17T07:30:28;8.68;;;3.50;;
67092;SDS011;54011;50.772;7.730;2022-10-17T07:33:08;10.50;;;3.50;;
67092;SDS011;54011;50.772;7.730;2022-10-17T07:35:33;7.28;;;3.47;;
67092;SDS011;54011;50.772;7.730;2022-10-17T07:37:58;7.30;;;3.25;;
67092;SDS011;54011;50.772;7.730;2022-10-17T07:40:25;8.50;;;3.50;;
67092;SDS011;54011;50.772;7.730;2022-10-17T07:42:51;9.40;;;3.63;;
67092;SDS011;54011;50.772;7.730;2022-10-17T07:45:17;8.07;;;3.47;;
67092;SDS011;54011;50.772;7.730;2022-10-17T07:47:43;9.85;;;3.15;;
67092;SDS011;54011;50.772;7.730;2022-10-17T07:50:11;7.07;;;3.47;;
67092;SDS011;54011;50.772;7.730;2022-10-17T07:52:36;10.57;;;3.30;;
67092;SDS011;54011;50.772;7.730;2022-10-17T07:55:02;8.15;;;3.47;;
67092;SDS011;54011;50.772;7.730;2022-10-17T07:57:28;7.57;;;3.00;;
67092;SDS011;54011;50.772;7.730;2022-10-17T07:59:53;4.55;;;3.05;;
67092;SDS011;54011;50.772;7.730;2022-10-17T08:02:23;7.57;;;3.15;;
67092;SDS011;54011;50.772;7.730;2022-10-17T08:04:50;9.75;;;3.45;;
67092;SDS011;54011;50.772;7.730;2022-10-17T08:07:18;8.75;;;3.10;;
67092;SDS011;54011;50.772;7.730;2022-10-17T08:09:44;7.45;;;2.92;;
67092;SDS011;54011;50.772;7.730;2022-10-17T08:12:10;8.63;;;3.42;;
67092;SDS011;54011;50.772;7.730;2022-10-17T08:14:38;8.02;;;2.97;;
67092;SDS011;54011;50.772;7.730;2022-10-17T08:17:04;5.82;;;2.97;;
67092;SDS011;54011;50.772;7.730;2022-10-17T08:19:30;7.88;;;2.85;;
67092;SDS011;54011;50.772;7.730;2022-10-17T08:24:57;7.63;;;2.90;;
67092;SDS011;54011;50.772;7.730;2022-10-17T08:27:22;6.85;;;2.55;;
67092;SDS011;54011;50.772;7.730;2022-10-17T08:29:52;8.63;;;2.83;;
67092;SDS011;54011;50.772;7.730;2022-10-17T08:32:22;9.48;;;2.72;;
67092;SDS011;54011;50.772;7.730;2022-10-17T08:34:50;5.72;;;2.38;;
67092;SDS011;54011;50.772;7.730;2022-10-17T08:37:15;6.05;;;2.65;;
67092;SDS011;54011;50.772;7.730;2022-10-17T08:39:41;7.22;;;2.58;;
67092;SDS011;54011;50.772;7.730;2022-10-17T08:44:38;8.18;;;2.83;;
67092;SDS011;54011;50.772;7.730;2022-10-17T08:47:36;7.60;;;2.50;;
67092;SDS011;54011;50.772;7.730;2022-10-17T08:50:08;6.80;;;2.60;;
67092;SDS011;54011;50.772;7.730;2022-10-17T08:52:51;6.18;;;2.40;;
67092;SDS011;54011;50.772;7.730;2022-10-17T08:58:00;6.40;;;2.28;;
67092;SDS011;54011;50.772;7.730;2022-10-17T09:00:25;8.00;;;2.50;;
67092;SDS011;54011;50.772;7.730;2022-10-17T09:10:57;10.40;;;2.50;;
67092;SDS011;54011;50.772;7.730;2022-10-17T09:16:30;7.28;;;2.35;;
67092;SDS011;54011;50.772;7.730;2022-10-17T09:19:20;6.47;;;2.63;;
67092;SDS011;54011;50.772;7.730;2022-10-17T09:21:57;9.98;;;2.55;;
67092;SDS011;54011;50.772;7.730;2022-10-17T09:29:39;5.18;;;2.20;;
67092;SDS011;54011;50.772;7.730;2022-10-17T09:32:19;8.45;;;2.97;;
67092;SDS011;54011;50.772;7.730;2022-10-17T09:34:48;5.47;;;2.53;;
67092;SDS011;54011;50.772;7.730;2022-10-17T09:37:14;5.97;;;2.40;;
67092;SDS011;54011;50.772;7.730;2022-10-17T09:39:41;7.20;;;2.80;;
67092;SDS011;54011;50.772;7.730;2022-10-17T09:42:11;9.15;;;2.40;;
67092;SDS011;54011;50.772;7.730;2022-10-17T09:49:43;7.65;;;2.40;;
67092;SDS011;54011;50.772;7.730;2022-10-17T09:52:14;6.10;;;2.30;;
67092;SDS011;54011;50.772;7.730;2022-10-17T09:54:46;7.82;;;2.95;;
67092;SDS011;54011;50.772;7.730;2022-10-17T09:57:14;7.85;;;2.38;;
67092;SDS011;54011;50.772;7.730;2022-10-17T10:02:08;9.93;;;2.55;;
67092;SDS011;54011;50.772;7.730;2022-10-17T10:04:49;6.88;;;2.22;;
67092;SDS011;54011;50.772;7.730;2022-10-17T10:07:24;6.82;;;2.53;;
67092;SDS011;54011;50.772;7.730;2022-10-17T10:09:52;8.02;;;2.53;;
67092;SDS011;54011;50.772;7.730;2022-10-17T10:12:23;7.57;;;2.50;;
67092;SDS011;54011;50.772;7.730;2022-10-17T10:14:53;7.18;;;2.33;;
67092;SDS011;54011;50.772;7.730;2022-10-17T10:17:36;6.80;;;2.45;;
67092;SDS011;54011;50.772;7.730;2022-10-17T10:25:50;8.38;;;2.50;;
67092;SDS011;54011;50.772;7.730;2022-10-17T10:28:22;4.57;;;2.47;;
67092;SDS011;54011;50.772;7.730;2022-10-17T10:30:51;9.50;;;2.50;;
67092;SDS011;54011;50.772;7.730;2022-10-17T10:33:19;9.18;;;2.55;;
67092;SDS011;54011;50.772;7.730;2022-10-17T10:36:08;5.75;;;2.40;;
67092;SDS011;54011;50.772;7.730;2022-10-17T10:38:32;9.90;;;2.30;;
67092;SDS011;54011;50.772;7.730;2022-10-17T10:41:05;10.48;;;2.58;;
67092;SDS011;54011;50.772;7.730;2022-10-17T10:43:37;10.10;;;2.70;;
67092;SDS011;54011;50.772;7.730;2022-10-17T10:46:19;10.05;;;2.95;;
67092;SDS011;54011;50.772;7.730;2022-10-17T10:49:03;9.00;;;2.38;;
67092;SDS011;54011;50.772;7.730;2022-10-17T10:51:49;8.27;;;2.38;;
67092;SDS011;54011;50.772;7.730;2022-10-17T10:54:16;10.18;;;2.53;;
67092;SDS011;54011;50.772;7.730;2022-10-17T10:56:51;8.90;;;2.20;;
67092;SDS011;54011;50.772;7.730;2022-10-17T10:59:29;7.40;;;2.28;;
67092;SDS011;54011;50.772;7.730;2022-10-17T11:07:29;7.60;;;2.13;;
67092;SDS011;54011;50.772;7.730;2022-10-17T11:15:28;7.20;;;2.13;;
67092;SDS011;54011;50.772;7.730;2022-10-17T11:23:27;9.32;;;2.40;;
67092;SDS011;54011;50.772;7.730;2022-10-17T11:26:00;7.28;;;2.20;;
67092;SDS011;54011;50.772;7.730;2022-10-17T11:28:29;7.93;;;2.45;;
67092;SDS011;54011;50.772;7.730;2022-10-17T11:30:59;8.32;;;2.40;;
67092;SDS011;54011;50.772;7.730;2022-10-17T11:36:00;8.57;;;2.28;;
67092;SDS011;54011;50.772;7.730;2022-10-17T11:41:52;5.82;;;2.30;;
67092;SDS011;54011;50.772;7.730;2022-10-17T11:47:09;6.03;;;2.13;;
67092;SDS011;54011;50.772;7.730;2022-10-17T11:49:37;11.05;;;2.20;;
67092;SDS011;54011;50.772;7.730;2022-10-17T11:52:18;6.25;;;2.15;;
67092;SDS011;54011;50.772;7.730;2022-10-17T11:55:00;7.80;;;2.60;;
67092;SDS011;54011;50.772;7.730;2022-10-17T11:57:45;8.07;;;2.30;;
67092;SDS011;54011;50.772;7.730;2022-10-17T12:12:23;7.13;;;2.20;;
67092;SDS011;54011;50.772;7.730;2022-10-17T12:14:51;8.35;;;2.30;;
67092;SDS011;54011;50.772;7.730;2022-10-17T12:20:16;8.65;;;2.60;;
67092;SDS011;54011;50.772;7.730;2022-10-17T12:25:22;7.60;;;2.50;;
67092;SDS011;54011;50.772;7.730;2022-10-17T12:28:00;7.13;;;2.33;;
67092;SDS011;54011;50.772;7.730;2022-10-17T12:30:30;6.28;;;2.30;;
67092;SDS011;54011;50.772;7.730;2022-10-17T12:33:10;10.73;;;6.32;;
67092;SDS011;54011;50.772;7.730;2022-10-17T12:35:47;9.38;;;2.50;;
67092;SDS011;54011;50.772;7.730;2022-10-17T12:38:35;9.52;;;2.38;;
67092;SDS011;54011;50.772;7.730;2022-10-17T12:41:01;8.63;;;2.53;;
67092;SDS011;54011;50.772;7.730;2022-10-17T12:53:58;13.20;;;2.50;;
67092;SDS011;54011;50.772;7.730;2022-10-17T13:01:58;7.22;;;2.85;;
67092;SDS011;54011;50.772;7.730;2022-10-17T13:04:25;8.10;;;2.42;;
67092;SDS011;54011;50.772;7.730;2022-10-17T13:06:53;10.30;;;2.55;;
67092;SDS011;54011;50.772;7.730;2022-10-17T13:09:30;9.65;;;2.70;;
67092;SDS011;54011;50.772;7.730;2022-10-17T13:12:00;6.95;;;2.72;;
67092;SDS011;54011;50.772;7.730;2022-10-17T13:14:28;5.55;;;2.47;;
67092;SDS011;54011;50.772;7.730;2022-10-17T13:17:00;12.70;;;2.80;;
67092;SDS011;54011;50.772;7.730;2022-10-17T13:19:29;9.48;;;2.47;;
67092;SDS011;54011;50.772;7.730;2022-10-17T13:22:10;7.03;;;2.60;;
67092;SDS011;54011;50.772;7.730;2022-10-17T13:24:40;8.32;;;2.40;;
67092;SDS011;54011;50.772;7.730;2022-10-17T13:27:20;7.68;;;2.60;;
67092;SDS011;54011;50.772;7.730;2022-10-17T13:29:48;8.68;;;2.63;;
67092;SDS011;54011;50.772;7.730;2022-10-17T13:32:13;10.20;;;3.10;;
67092;SDS011;54011;50.772;7.730;2022-10-17T13:34:39;8.18;;;2.50;;
67092;SDS011;54011;50.772;7.730;2022-10-17T13:37:05;7.38;;;2.42;;
67092;SDS011;54011;50.772;7.730;2022-10-17T13:39:35;7.82;;;2.50;;
67092;SDS011;54011;50.772;7.730;2022-10-17T13:42:04;7.38;;;2.75;;
67092;SDS011;54011;50.772;7.730;2022-10-17T13:44:31;11.35;;;2.72;;
67092;SDS011;54011;50.772;7.730;2022-10-17T13:46:58;8.18;;;2.45;;
67092;SDS011;54011;50.772;7.730;2022-10-17T13:49:28;8.45;;;2.70;;
67092;SDS011;54011;50.772;7.730;2022-10-17T13:51:55;7.72;;;2.60;;
67092;SDS011;54011;50.772;7.730;2022-10-17T13:56:57;7.30;;;2.42;;
67092;SDS011;54011;50.772;7.730;2022-10-17T13:59:39;5.32;;;2.78;;
67092;SDS011;54011;50.772;7.730;2022-10-17T14:02:08;12.27;;;2.78;;
67092;SDS011;54011;50.772;7.730;2022-10-17T14:04:39;8.90;;;2.63;;
67092;SDS011;54011;50.772;7.730;2022-10-17T14:07:05;13.68;;;3.17;;
67092;SDS011;54011;50.772;7.730;2022-10-17T14:09:37;8.65;;;2.67;;
67092;SDS011;54011;50.772;7.730;2022-10-17T14:12:10;8.88;;;2.90;;
67092;SDS011;54011;50.772;7.730;2022-10-17T14:14:37;6.50;;;2.65;;
67092;SDS011;54011;50.772;7.730;2022-10-17T14:17:20;10.88;;;2.70;;
67092;SDS011;54011;50.772;7.730;2022-10-17T14:19:52;9.75;;;2.63;;
67092;SDS011;54011;50.772;7.730;2022-10-17T14:24:46;8.57;;;2.67;;
67092;SDS011;54011;50.772;7.730;2022-10-17T14:27:30;7.97;;;2.70;;
67092;SDS011;54011;50.772;7.730;2022-10-17T14:30:29;6.40;;;2.53;;
67092;SDS011;54011;50.772;7.730;2022-10-17T14:32:50;12.00;;;3.08;;
67092;SDS011;54011;50.772;7.730;2022-10-17T14:35:20;7.13;;;2.45;;
67092;SDS011;54011;50.772;7.730;2022-10-17T14:37:47;8.15;;;2.70;;
67092;SDS011;54011;50.772;7.730;2022-10-17T14:40:15;7.25;;;2.65;;
67092;SDS011;54011;50.772;7.730;2022-10-17T14:42:42;11.85;;;2.90;;
67092;SDS011;54011;50.772;7.730;2022-10-17T14:45:21;13.02;;;2.72;;
67092;SDS011;54011;50.772;7.730;2022-10-17T14:47:50;14.23;;;3.33;;
67092;SDS011;54011;50.772;7.730;2022-10-17T14:50:20;15.35;;;3.17;;
67092;SDS011;54011;50.772;7.730;2022-10-17T14:55:26;9.05;;;3.35;;
67092;SDS011;54011;50.772;7.730;2022-10-17T14:57:53;8.70;;;2.78;;
67092;SDS011;54011;50.772;7.730;2022-10-17T15:00:19;7.95;;;2.55;;
67092;SDS011;54011;50.772;7.730;2022-10-17T15:02:46;9.98;;;3.00;;
67092;SDS011;54011;50.772;7.730;2022-10-17T15:05:12;8.05;;;2.70;;
67092;SDS011;54011;50.772;7.730;2022-10-17T15:07:38;9.52;;;2.67;;
67092;SDS011;54011;50.772;7.730;2022-10-17T15:13:06;12.27;;;2.80;;
67092;SDS011;54011;50.772;7.730;2022-10-17T15:15:32;9.82;;;2.75;;
67092;SDS011;54011;50.772;7.730;2022-10-17T15:17:58;6.95;;;2.47;;
67092;SDS011;54011;50.772;7.730;2022-10-17T15:20:24;13.27;;;2.80;;
67092;SDS011;54011;50.772;7.730;2022-10-17T15:22:52;9.90;;;2.65;;
67092;SDS011;54011;50.772;7.730;2022-10-17T15:25:21;9.18;;;2.65;;
67092;SDS011;54011;50.772;7.730;2022-10-17T15:27:47;10.73;;;2.58;;
67092;SDS011;54011;50.772;7.730;2022-10-17T15:30:34;6.10;;;2.22;;
67092;SDS011;54011;50.772;7.730;2022-10-17T15:32:59;8.18;;;2.45;;
67092;SDS011;54011;50.772;7.730;2022-10-17T15:35:25;9.75;;;2.70;;
67092;SDS011;54011;50.772;7.730;2022-10-17T15:37:52;13.75;;;2.83;;
67092;SDS011;54011;50.772;7.730;2022-10-17T15:40:19;6.05;;;2.25;;
67092;SDS011;54011;50.772;7.730;2022-10-17T15:42:47;8.65;;;2.55;;
67092;SDS011;54011;50.772;7.730;2022-10-17T15:45:13;10.75;;;2.60;;
67092;SDS011;54011;50.772;7.730;2022-10-17T15:47:40;9.20;;;2.70;;
67092;SDS011;54011;50.772;7.730;2022-10-17T15:50:10;7.70;;;2.42;;
67092;SDS011;54011;50.772;7.730;2022-10-17T15:52:38;13.32;;;3.47;;
67092;SDS011;54011;50.772;7.730;2022-10-17T15:55:05;9.18;;;4.00;;
67092;SDS011;54011;50.772;7.730;2022-10-17T15:57:41;9.50;;;3.33;;
67092;SDS011;54011;50.772;7.730;2022-10-17T16:00:15;8.57;;;3.03;;
67092;SDS011;54011;50.772;7.730;2022-10-17T16:02:46;9.65;;;3.10;;
67092;SDS011;54011;50.772;7.730;2022-10-17T16:05:20;9.55;;;2.83;;
67092;SDS011;54011;50.772;7.730;2022-10-17T16:07:47;7.40;;;2.72;;
67092;SDS011;54011;50.772;7.730;2022-10-17T16:10:13;12.98;;;2.78;;
67092;SDS011;54011;50.772;7.730;2022-10-17T16:12:40;11.50;;;3.00;;
67092;SDS011;54011;50.772;7.730;2022-10-17T16:15:13;8.52;;;2.58;;
67092;SDS011;54011;50.772;7.730;2022-10-17T16:17:40;11.52;;;2.50;;
67092;SDS011;54011;50.772;7.730;2022-10-17T16:20:06;9.15;;;2.60;;
67092;SDS011;54011;50.772;7.730;2022-10-17T16:22:32;11.40;;;3.10;;
67092;SDS011;54011;50.772;7.730;2022-10-17T16:25:01;8.20;;;2.72;;
67092;SDS011;54011;50.772;7.730;2022-10-17T16:27:34;6.30;;;2.22;;
67092;SDS011;54011;50.772;7.730;2022-10-17T16:30:00;6.15;;;2.40;;
67092;SDS011;54011;50.772;7.730;2022-10-17T16:32:27;8.98;;;2.58;;
67092;SDS011;54011;50.772;7.730;2022-10-17T16:34:53;6.13;;;2.30;;
67092;SDS011;54011;50.772;7.730;2022-10-17T16:37:18;6.30;;;2.30;;
67092;SDS011;54011;50.772;7.730;2022-10-17T16:39:44;6.35;;;2.30;;
67092;SDS011;54011;50.772;7.730;2022-10-17T16:42:13;10.23;;;2.25;;
67092;SDS011;54011;50.772;7.730;2022-10-17T16:44:39;6.95;;;2.40;;
67092;SDS011;54011;50.772;7.730;2022-10-17T16:47:04;11.48;;;2.35;;
67092;SDS011;54011;50.772;7.730;2022-10-17T16:49:30;12.95;;;2.55;;
67092;SDS011;54011;50.772;7.730;2022-10-17T16:51:55;7.90;;;2.55;;
67092;SDS011;54011;50.772;7.730;2022-10-17T16:54:21;8.40;;;2.30;;
67092;SDS011;54011;50.772;7.730;2022-10-17T16:56:46;7.50;;;2.35;;
67092;SDS011;54011;50.772;7.730;2022-10-17T16:59:14;14.68;;;4.55;;
67092;SDS011;54011;50.772;7.730;2022-10-17T17:01:39;10.23;;;3.40;;
67092;SDS011;54011;50.772;7.730;2022-10-17T17:04:05;9.90;;;2.80;;
67092;SDS011;54011;50.772;7.730;2022-10-17T17:06:33;10.30;;;2.80;;
67092;SDS011;54011;50.772;7.730;2022-10-17T17:08:59;13.63;;;3.40;;
67092;SDS011;54011;50.772;7.730;2022-10-17T17:11:25;10.57;;;2.88;;
67092;SDS011;54011;50.772;7.730;2022-10-17T17:13:56;11.90;;;2.95;;
67092;SDS011;54011;50.772;7.730;2022-10-17T17:16:23;9.75;;;2.80;;
67092;SDS011;54011;50.772;7.730;2022-10-17T17:18:53;9.60;;;2.95;;
67092;SDS011;54011;50.772;7.730;2022-10-17T17:21:21;8.40;;;2.95;;
67092;SDS011;54011;50.772;7.730;2022-10-17T17:23:46;8.10;;;3.15;;